createdAt,value
2018-07-12T00:00:31.600Z,16.80
2018-07-12T00:05:26.494Z,16.80
2018-07-12T00:07:53.791Z,16.80
2018-07-12T00:10:21.143Z,16.70
2018-07-12T00:12:48.439Z,16.70
2018-07-12T00:15:16.073Z,16.90
2018-07-12T00:17:43.365Z,16.80
2018-07-12T00:20:10.709Z,16.80
2018-07-12T00:22:38.014Z,16.80
2018-07-12T00:25:05.363Z,16.70
2018-07-12T00:30:00.295Z,16.80
2018-07-12T00:32:27.602Z,16.90
2018-07-12T00:34:54.930Z,17.10
2018-07-12T00:37:22.557Z,16.90
2018-07-12T00:39:50.221Z,17.00
2018-07-12T00:42:17.538Z,17.00
2018-07-12T00:44:44.896Z,17.10
2018-07-12T00:47:12.221Z,17.10
2018-07-12T00:49:39.565Z,17.00
2018-07-12T00:52:06.878Z,16.80
2018-07-12T00:54:34.252Z,16.80
2018-07-12T00:57:01.572Z,16.70
2018-07-12T00:59:28.917Z,16.70
2018-07-12T01:01:56.234Z,16.90
2018-07-12T01:04:23.558Z,16.70
2018-07-12T01:06:50.863Z,16.70
2018-07-12T01:09:18.193Z,16.50
2018-07-12T01:11:45.502Z,16.50
2018-07-12T01:16:40.467Z,16.60
2018-07-12T01:19:07.785Z,16.60
2018-07-12T01:21:35.101Z,16.60
2018-07-12T01:24:02.473Z,16.70
2018-07-12T01:26:29.796Z,16.70
2018-07-12T01:28:57.143Z,16.60
2018-07-12T01:31:24.443Z,16.60
2018-07-12T01:33:51.775Z,16.60
2018-07-12T01:36:19.129Z,16.60
2018-07-12T01:38:46.448Z,16.50
2018-07-12T01:41:13.801Z,16.60
2018-07-12T01:43:41.089Z,16.40
2018-07-12T01:46:08.434Z,16.50
2018-07-12T01:48:35.762Z,16.50
2018-07-12T01:51:03.083Z,16.30
2018-07-12T01:53:30.393Z,16.40
2018-07-12T01:55:57.787Z,16.50
2018-07-12T02:00:52.658Z,16.50
2018-07-12T02:03:20.016Z,16.40
2018-07-12T02:05:53.747Z,16.40
2018-07-12T02:08:21.079Z,16.40
2018-07-12T02:10:48.399Z,16.40
2018-07-12T02:13:15.726Z,16.40
2018-07-12T02:15:44.052Z,16.40
2018-07-12T02:18:11.361Z,16.20
2018-07-12T02:20:38.704Z,16.10
2018-07-12T02:23:05.993Z,16.20
2018-07-12T02:25:33.351Z,16.20
2018-07-12T02:28:00.654Z,16.20
2018-07-12T02:30:27.984Z,16.20
2018-07-12T02:32:55.300Z,16.00
2018-07-12T02:35:22.678Z,15.90
2018-07-12T02:37:49.991Z,15.90
2018-07-12T02:40:17.330Z,16.00
2018-07-12T02:42:44.636Z,16.10
2018-07-12T02:45:11.969Z,16.00
2018-07-12T02:47:39.269Z,15.90
2018-07-12T02:50:06.615Z,16.00
2018-07-12T02:52:33.916Z,16.00
2018-07-12T02:55:01.258Z,15.90
2018-07-12T02:57:28.578Z,15.90
2018-07-12T02:59:55.896Z,15.90
2018-07-12T03:02:23.206Z,15.80
2018-07-12T03:04:50.549Z,15.70
2018-07-12T03:07:17.855Z,15.70
2018-07-12T03:09:45.194Z,15.80
2018-07-12T03:12:12.508Z,15.90
2018-07-12T03:14:39.813Z,15.80
2018-07-12T03:17:07.127Z,15.90
2018-07-12T03:19:34.437Z,15.90
2018-07-12T03:22:01.770Z,15.80
2018-07-12T03:24:29.070Z,15.70
2018-07-12T03:26:56.384Z,15.70
2018-07-12T03:29:23.700Z,15.70
2018-07-12T03:31:51.016Z,15.80
2018-07-12T03:34:18.316Z,15.70
2018-07-12T03:36:45.637Z,15.60
2018-07-12T03:39:12.954Z,15.80
2018-07-12T03:41:40.266Z,15.70
2018-07-12T03:44:07.596Z,15.60
2018-07-12T03:46:34.928Z,15.50
2018-07-12T03:49:02.248Z,15.50
2018-07-12T03:51:29.649Z,15.50
2018-07-12T03:53:57.175Z,15.60
2018-07-12T03:56:24.536Z,15.60
2018-07-12T03:58:51.844Z,15.70
2018-07-12T04:01:19.188Z,15.70
2018-07-12T04:03:46.494Z,15.70
2018-07-12T04:06:13.819Z,15.60
2018-07-12T04:08:41.118Z,15.70
2018-07-12T04:11:08.448Z,15.70
2018-07-12T04:13:35.749Z,15.70
2018-07-12T04:16:03.071Z,15.80
2018-07-12T04:18:30.415Z,15.80
2018-07-12T04:20:57.744Z,15.90
2018-07-12T04:23:25.064Z,15.80
2018-07-12T04:25:52.384Z,15.80
2018-07-12T04:28:19.678Z,16.00
2018-07-12T04:30:47.230Z,16.00
2018-07-12T04:33:14.529Z,16.10
2018-07-12T04:35:41.866Z,16.20
2018-07-12T04:38:09.163Z,16.30
2018-07-12T04:40:36.518Z,16.30
2018-07-12T04:43:03.807Z,16.30
2018-07-12T04:45:31.140Z,16.30
2018-07-12T04:47:58.450Z,16.40
2018-07-12T04:50:25.795Z,16.50
2018-07-12T04:52:53.093Z,16.50
2018-07-12T04:55:20.384Z,16.40
2018-07-12T04:57:47.762Z,16.50
2018-07-12T05:00:15.059Z,16.50
2018-07-12T05:02:42.410Z,16.50
2018-07-12T05:05:09.697Z,16.60
2018-07-12T05:07:37.045Z,16.60
2018-07-12T05:12:38.000Z,16.50
2018-07-12T05:15:05.328Z,16.60
2018-07-12T05:17:32.648Z,16.60
2018-07-12T05:19:59.960Z,16.70
2018-07-12T05:22:27.323Z,16.70
2018-07-12T05:24:54.632Z,16.70
2018-07-12T05:27:21.960Z,16.70
2018-07-12T05:29:49.263Z,16.60
2018-07-12T05:32:16.604Z,16.70
2018-07-12T05:34:43.891Z,16.80
2018-07-12T05:37:12.213Z,16.80
2018-07-12T05:39:40.505Z,16.90
2018-07-12T05:42:08.842Z,16.80
2018-07-12T05:44:37.142Z,16.90
2018-07-12T05:47:05.559Z,17.00
2018-07-12T05:49:33.895Z,17.00
2018-07-12T05:52:08.790Z,16.90
2018-07-12T05:54:37.101Z,16.90
2018-07-12T05:57:05.466Z,17.00
2018-07-12T05:59:33.806Z,17.00
2018-07-12T06:02:13.400Z,17.00
2018-07-12T06:04:41.717Z,17.00
2018-07-12T06:07:10.135Z,17.10
2018-07-12T06:09:38.435Z,17.20
2018-07-12T06:12:06.863Z,17.10
2018-07-12T06:14:35.154Z,17.10
2018-07-12T06:17:03.585Z,17.10
2018-07-12T06:19:31.883Z,17.00
2018-07-12T06:22:00.201Z,17.00
2018-07-12T06:24:28.582Z,17.00
2018-07-12T06:26:56.902Z,17.00
2018-07-12T06:29:25.255Z,17.00
2018-07-12T06:31:53.603Z,17.00
2018-07-12T06:34:21.947Z,17.00
2018-07-12T06:36:50.277Z,17.10
2018-07-12T06:39:18.648Z,17.10
2018-07-12T06:41:47.003Z,17.00
2018-07-12T06:44:15.315Z,17.00
2018-07-12T06:46:43.842Z,17.00
2018-07-12T06:49:12.142Z,17.10
2018-07-12T06:51:40.563Z,17.10
2018-07-12T06:54:08.987Z,17.10
2018-07-12T06:56:37.298Z,17.20
2018-07-12T06:59:05.682Z,17.30
2018-07-12T07:01:33.974Z,17.30
2018-07-12T07:04:02.336Z,17.40
2018-07-12T07:06:30.625Z,17.40
2018-07-12T07:08:58.994Z,17.50
2018-07-12T07:11:27.324Z,17.40
2018-07-12T07:13:55.642Z,17.40
2018-07-12T07:16:23.944Z,17.40
2018-07-12T07:21:20.532Z,17.50
2018-07-12T07:23:48.893Z,17.50
2018-07-12T07:26:18.029Z,17.40
2018-07-12T07:28:46.388Z,17.50
2018-07-12T07:31:14.728Z,17.50
2018-07-12T07:33:43.047Z,17.50
2018-07-12T07:36:11.397Z,17.50
2018-07-12T07:38:39.736Z,17.50
2018-07-12T07:41:08.037Z,17.70
2018-07-12T07:43:36.411Z,17.70
2018-07-12T07:46:04.709Z,17.60
2018-07-12T07:48:33.084Z,17.70
2018-07-12T07:51:01.521Z,17.60
2018-07-12T07:53:29.843Z,17.70
2018-07-12T07:55:58.203Z,17.60
2018-07-12T07:58:26.555Z,17.70
2018-07-12T08:00:54.857Z,17.60
2018-07-12T08:05:51.342Z,17.60
2018-07-12T08:08:19.683Z,17.70
2018-07-12T08:10:48.044Z,17.70
2018-07-12T08:13:16.396Z,17.80
2018-07-12T08:15:44.754Z,17.80
2018-07-12T08:18:13.108Z,17.80
2018-07-12T08:20:41.434Z,17.80
2018-07-12T08:23:09.795Z,17.80
2018-07-12T08:25:38.137Z,17.80
2018-07-12T08:28:17.988Z,17.80
2018-07-12T08:33:14.443Z,17.70
2018-07-12T08:35:42.744Z,17.80
2018-07-12T08:38:11.092Z,17.80
2018-07-12T08:40:39.521Z,17.80
2018-07-12T08:43:07.878Z,17.80
2018-07-12T08:45:36.226Z,17.80
2018-07-12T08:48:04.665Z,17.90
2018-07-12T08:50:33.023Z,17.90
2018-07-12T08:53:01.433Z,17.80
2018-07-12T08:55:29.811Z,17.80
2018-07-12T08:57:58.186Z,17.80
2018-07-12T09:00:26.547Z,17.90
2018-07-12T09:02:55.020Z,17.80
2018-07-12T09:05:23.324Z,17.70
2018-07-12T09:07:51.840Z,17.80
2018-07-12T09:10:20.773Z,17.80
2018-07-12T09:12:49.091Z,17.80
2018-07-12T09:15:17.494Z,17.70
2018-07-12T09:17:45.804Z,17.70
2018-07-12T09:20:14.215Z,17.60
2018-07-12T09:22:42.537Z,17.60
2018-07-12T09:25:10.910Z,17.60
2018-07-12T09:27:39.214Z,17.60
2018-07-12T09:30:07.584Z,17.60
2018-07-12T09:32:35.893Z,17.60
2018-07-12T09:35:04.357Z,17.60
2018-07-12T09:37:32.628Z,17.60
2018-07-12T09:40:00.976Z,17.70
2018-07-12T09:42:29.307Z,17.70
2018-07-12T09:44:57.703Z,17.70
2018-07-12T09:47:26.071Z,17.70
2018-07-12T09:49:54.399Z,17.60
2018-07-12T09:52:28.168Z,17.60
2018-07-12T09:54:56.511Z,17.60
2018-07-12T09:57:36.209Z,17.70
2018-07-12T10:00:04.951Z,17.60
2018-07-12T10:02:38.817Z,17.60
2018-07-12T10:05:16.280Z,17.70
2018-07-12T10:07:51.242Z,17.60
2018-07-12T10:10:22.311Z,17.70
2018-07-12T10:12:56.125Z,17.70
2018-07-12T10:15:29.799Z,17.80
2018-07-12T10:18:03.475Z,17.80
2018-07-12T10:20:31.931Z,17.90
2018-07-12T10:23:00.496Z,17.90
2018-07-12T10:25:28.834Z,18.00
2018-07-12T10:27:57.270Z,18.10
2018-07-12T10:30:25.596Z,18.10
2018-07-12T10:32:53.909Z,18.10
2018-07-12T10:35:22.266Z,18.10
2018-07-12T10:37:50.716Z,18.10
2018-07-12T10:40:19.712Z,18.20
2018-07-12T10:42:48.038Z,18.30
2018-07-12T10:45:17.883Z,18.30
2018-07-12T10:47:46.243Z,18.30
2018-07-12T10:50:14.755Z,18.30
2018-07-12T10:52:43.052Z,18.40
2018-07-12T10:55:11.480Z,18.40
2018-07-12T10:57:39.849Z,18.40
2018-07-12T11:00:09.254Z,18.50
2018-07-12T11:02:37.571Z,18.50
2018-07-12T11:05:06.215Z,18.60
2018-07-12T11:07:34.523Z,18.60
2018-07-12T11:10:02.941Z,18.60
2018-07-12T11:12:31.278Z,18.60
2018-07-12T11:14:59.639Z,18.70
2018-07-12T11:17:28.036Z,18.80
2018-07-12T11:19:56.370Z,18.90
2018-07-12T11:22:24.742Z,19.00
2018-07-12T11:24:53.141Z,19.00
2018-07-12T11:27:21.502Z,19.10
2018-07-12T11:29:53.124Z,19.20
2018-07-12T11:32:21.484Z,19.30
2018-07-12T11:34:50.241Z,19.30
2018-07-12T11:37:20.125Z,19.40
2018-07-12T11:39:48.488Z,19.40
2018-07-12T11:42:16.864Z,19.50
2018-07-12T11:44:45.250Z,19.60
2018-07-12T11:47:13.798Z,19.70
2018-07-12T11:52:10.339Z,20.00
2018-07-12T11:54:38.671Z,20.30
2018-07-12T11:57:07.068Z,20.60
2018-07-12T11:59:35.550Z,20.80
2018-07-12T12:02:04.101Z,21.00
2018-07-12T12:04:32.416Z,21.20
2018-07-12T12:07:00.851Z,21.30
2018-07-12T12:09:29.142Z,21.50
2018-07-12T12:11:57.531Z,21.40
2018-07-12T12:14:25.851Z,21.40
2018-07-12T12:16:54.231Z,21.50
2018-07-12T12:19:22.685Z,21.80
2018-07-12T12:21:51.056Z,21.90
2018-07-12T12:24:19.562Z,21.80
2018-07-12T12:26:47.951Z,21.80
2018-07-12T12:29:16.360Z,21.90
2018-07-12T12:31:44.740Z,21.70
2018-07-12T12:34:13.200Z,21.70
2018-07-12T12:36:41.609Z,21.60
2018-07-12T12:39:09.970Z,21.60
2018-07-12T12:41:38.334Z,21.80
2018-07-12T12:46:34.742Z,21.90
2018-07-12T12:49:03.086Z,21.80
2018-07-12T12:51:31.393Z,21.90
2018-07-12T12:53:59.701Z,21.70
2018-07-12T12:56:28.048Z,21.70
2018-07-12T12:58:56.368Z,21.70
2018-07-12T13:01:24.705Z,21.70
2018-07-12T13:03:53.136Z,21.90
2018-07-12T13:08:49.798Z,22.10
2018-07-12T13:11:18.194Z,22.00
2018-07-12T13:13:47.069Z,22.10
2018-07-12T13:16:15.409Z,22.20
2018-07-12T13:18:50.336Z,22.10
2018-07-12T13:21:18.687Z,21.80
2018-07-12T13:23:47.039Z,21.90
2018-07-12T13:26:15.366Z,22.00
2018-07-12T13:28:43.680Z,22.00
2018-07-12T13:31:12.024Z,22.00
2018-07-12T13:33:40.353Z,22.10
2018-07-12T13:36:08.715Z,22.10
2018-07-12T13:38:37.036Z,22.10
2018-07-12T13:41:05.409Z,22.10
2018-07-12T13:43:33.774Z,22.10
2018-07-12T13:46:02.082Z,22.00
2018-07-12T13:48:30.443Z,22.00
2018-07-12T13:50:58.799Z,22.00
2018-07-12T13:53:27.836Z,21.90
2018-07-12T13:55:56.187Z,21.90
2018-07-12T13:58:24.569Z,21.80
2018-07-12T14:00:52.894Z,21.80
2018-07-12T14:03:21.250Z,21.80
2018-07-12T14:05:49.569Z,21.90
2018-07-12T14:08:18.067Z,22.00
2018-07-12T14:10:46.402Z,22.10
2018-07-12T14:13:14.742Z,22.10
2018-07-12T14:15:43.023Z,22.20
2018-07-12T14:18:11.390Z,22.40
2018-07-12T14:20:39.729Z,22.50
2018-07-12T14:23:08.078Z,22.60
2018-07-12T14:25:36.423Z,22.60
2018-07-12T14:28:04.758Z,22.70
2018-07-12T14:30:33.086Z,22.70
2018-07-12T14:33:01.441Z,22.70
2018-07-12T14:35:29.772Z,22.60
2018-07-12T14:37:58.178Z,22.60
2018-07-12T14:40:26.498Z,22.60
2018-07-12T14:42:54.808Z,22.50
2018-07-12T14:45:23.101Z,22.50
2018-07-12T14:47:51.494Z,22.50
2018-07-12T14:50:20.118Z,22.40
2018-07-12T14:52:48.484Z,22.40
2018-07-12T14:55:16.883Z,22.50
2018-07-12T14:57:45.372Z,22.50
2018-07-12T15:00:13.746Z,22.60
2018-07-12T15:02:42.170Z,22.50
2018-07-12T15:05:10.445Z,22.40
2018-07-12T15:07:38.752Z,22.40
2018-07-12T15:10:07.078Z,22.30
2018-07-12T15:12:35.492Z,22.20
2018-07-12T15:15:03.842Z,22.20
2018-07-12T15:17:32.387Z,22.10
2018-07-12T15:20:00.774Z,22.00
2018-07-12T15:22:29.171Z,21.90
2018-07-12T15:24:57.514Z,21.80
2018-07-12T15:27:25.870Z,21.70
2018-07-12T15:29:54.192Z,21.70
2018-07-12T15:32:22.542Z,21.70
2018-07-12T15:34:50.894Z,21.60
2018-07-12T15:37:19.255Z,21.50
2018-07-12T15:39:47.690Z,21.50
2018-07-12T15:42:16.031Z,21.50
2018-07-12T15:44:45.483Z,21.40
2018-07-12T15:47:13.829Z,21.40
2018-07-12T15:49:42.226Z,21.40
2018-07-12T15:52:10.574Z,21.50
2018-07-12T15:54:38.950Z,21.40
2018-07-12T15:57:07.297Z,21.50
2018-07-12T15:59:36.386Z,21.50
2018-07-12T16:02:04.821Z,21.50
2018-07-12T16:04:33.087Z,21.50
2018-07-12T16:07:01.411Z,21.50
2018-07-12T16:09:29.816Z,21.50
2018-07-12T16:11:58.205Z,21.30
2018-07-12T16:14:26.542Z,21.30
2018-07-12T16:16:54.885Z,21.30
2018-07-12T16:19:23.238Z,21.30
2018-07-12T16:24:20.108Z,21.30
2018-07-12T16:26:48.467Z,21.20
2018-07-12T16:31:44.984Z,21.20
2018-07-12T16:34:13.375Z,21.20
2018-07-12T16:36:41.709Z,21.10
2018-07-12T16:39:10.061Z,21.10
2018-07-12T16:41:38.391Z,21.10
2018-07-12T16:44:06.745Z,21.10
2018-07-12T16:46:35.126Z,21.10
2018-07-12T16:49:10.157Z,21.00
2018-07-12T16:51:38.503Z,21.00
2018-07-12T16:54:06.869Z,20.90
2018-07-12T16:56:35.187Z,20.90
2018-07-12T16:59:03.597Z,20.90
2018-07-12T17:01:32.337Z,20.80
2018-07-12T17:06:28.798Z,20.80
2018-07-12T17:10:26.391Z,20.80
2018-07-12T17:12:54.815Z,20.80
2018-07-12T17:15:23.197Z,20.80
2018-07-12T17:17:51.531Z,20.80
2018-07-12T17:20:19.950Z,20.70
2018-07-12T17:22:48.357Z,20.70
2018-07-12T17:25:16.737Z,20.80
2018-07-12T17:27:45.109Z,20.80
2018-07-12T17:30:13.665Z,20.70
2018-07-12T17:32:41.998Z,20.70
2018-07-12T17:35:10.332Z,20.70
2018-07-12T17:37:38.781Z,20.60
2018-07-12T17:40:07.226Z,20.60
2018-07-12T17:42:35.592Z,20.60
2018-07-12T17:45:04.692Z,20.50
2018-07-12T17:47:33.045Z,20.50
2018-07-12T17:52:29.555Z,20.40
2018-07-12T17:54:57.967Z,20.40
2018-07-12T17:57:26.330Z,20.40
2018-07-12T17:59:54.729Z,20.40
2018-07-12T18:02:23.030Z,20.30
2018-07-12T18:04:51.401Z,20.40
2018-07-12T18:07:19.752Z,20.40
2018-07-12T18:09:48.134Z,20.40
2018-07-12T18:12:16.783Z,20.30
2018-07-12T18:14:45.298Z,20.30
2018-07-12T18:17:13.648Z,20.30
2018-07-12T18:19:42.021Z,20.30
2018-07-12T18:22:10.489Z,20.30
2018-07-12T18:24:38.984Z,20.20
2018-07-12T18:27:07.342Z,20.20
2018-07-12T18:29:35.711Z,20.20
2018-07-12T18:32:04.101Z,20.20
2018-07-12T18:34:32.559Z,20.20
2018-07-12T18:37:00.870Z,20.20
2018-07-12T18:39:39.797Z,20.10
2018-07-12T18:42:08.614Z,20.10
2018-07-12T18:44:36.998Z,20.10
2018-07-12T18:47:05.753Z,20.20
2018-07-12T18:49:34.436Z,20.20
2018-07-12T18:52:02.775Z,20.20
2018-07-12T18:54:31.285Z,20.20
2018-07-12T18:56:59.639Z,20.10
2018-07-12T18:59:28.019Z,20.10
2018-07-12T19:01:56.349Z,20.10
2018-07-12T19:04:24.682Z,20.10
2018-07-12T19:06:53.330Z,20.10
2018-07-12T19:09:21.683Z,20.10
2018-07-12T19:11:50.105Z,20.10
2018-07-12T19:14:19.179Z,20.10
2018-07-12T19:16:47.541Z,20.10
2018-07-12T19:19:15.890Z,20.10
2018-07-12T19:21:44.294Z,20.10
2018-07-12T19:24:12.754Z,20.10
2018-07-12T19:26:41.173Z,20.10
2018-07-12T19:29:09.527Z,20.10
2018-07-12T19:31:38.302Z,20.00
2018-07-12T19:34:06.748Z,19.90
2018-07-12T19:36:35.133Z,19.90
2018-07-12T19:41:31.752Z,19.80
2018-07-12T19:44:00.061Z,19.80
2018-07-12T19:46:28.519Z,19.80
2018-07-12T19:48:57.848Z,19.80
2018-07-12T19:51:26.301Z,19.80
2018-07-12T19:53:54.662Z,19.80
2018-07-12T19:56:23.054Z,19.80
2018-07-12T19:58:51.388Z,19.80
2018-07-12T20:01:19.739Z,19.80
2018-07-12T20:03:48.091Z,19.80
2018-07-12T20:06:16.539Z,19.80
2018-07-12T20:08:44.847Z,19.70
2018-07-12T20:11:13.278Z,19.70
2018-07-12T20:13:41.647Z,19.70
2018-07-12T20:16:10.056Z,19.70
2018-07-12T20:18:38.420Z,19.70
2018-07-12T20:21:06.812Z,19.70
2018-07-12T20:23:35.177Z,19.70
2018-07-12T20:26:03.591Z,19.70
2018-07-12T20:28:31.978Z,19.70
2018-07-12T20:31:00.379Z,19.70
2018-07-12T20:33:28.730Z,19.70
2018-07-12T20:35:57.070Z,19.80
2018-07-12T20:38:25.494Z,19.90
2018-07-12T20:40:53.940Z,20.00
2018-07-12T20:43:22.259Z,20.00
2018-07-12T20:45:50.617Z,20.00
2018-07-12T20:48:18.970Z,19.90
2018-07-12T20:50:47.322Z,19.90
2018-07-12T20:53:15.910Z,19.80
2018-07-12T20:55:44.255Z,19.90
2018-07-12T20:58:12.632Z,19.80
2018-07-12T21:00:41.064Z,19.80
2018-07-12T21:03:09.432Z,19.70
2018-07-12T21:05:37.797Z,19.60
2018-07-12T21:08:06.154Z,19.60
2018-07-12T21:10:34.890Z,19.60
2018-07-12T21:13:03.282Z,19.60
2018-07-12T21:15:31.687Z,19.60
2018-07-12T21:18:00.078Z,19.60
2018-07-12T21:20:28.527Z,19.60
2018-07-12T21:22:56.977Z,19.60
2018-07-12T21:25:25.438Z,19.70
2018-07-12T21:27:54.041Z,19.50
2018-07-12T21:30:22.527Z,19.50
2018-07-12T21:32:50.946Z,19.40
2018-07-12T21:35:19.260Z,19.30
2018-07-12T21:37:47.638Z,19.30
2018-07-12T21:40:15.990Z,19.30
2018-07-12T21:42:45.322Z,19.20
2018-07-12T21:45:13.669Z,19.30
2018-07-12T21:47:42.051Z,19.40
2018-07-12T21:50:10.407Z,19.40
2018-07-12T21:52:38.803Z,19.30
2018-07-12T21:55:07.187Z,19.30
2018-07-12T21:57:35.669Z,19.30
2018-07-12T22:00:08.193Z,19.40
2018-07-12T22:02:37.025Z,19.40
2018-07-12T22:05:05.418Z,19.30
2018-07-12T22:07:48.067Z,19.40
2018-07-12T22:10:16.539Z,19.30
2018-07-12T22:12:44.908Z,19.20
2018-07-12T22:15:13.277Z,19.10
2018-07-12T22:17:41.654Z,19.10
2018-07-12T22:20:10.033Z,19.10
2018-07-12T22:22:38.415Z,19.00
2018-07-12T22:25:06.754Z,19.00
2018-07-12T22:27:36.094Z,19.00
2018-07-12T22:30:04.816Z,19.00
2018-07-12T22:32:33.186Z,19.10
2018-07-12T22:35:01.563Z,19.10
2018-07-12T22:37:29.934Z,19.10
2018-07-12T22:39:58.272Z,19.20
2018-07-12T22:42:26.688Z,19.20
2018-07-12T22:44:55.045Z,19.30
2018-07-12T22:47:23.423Z,19.30
2018-07-12T22:49:51.762Z,19.30
2018-07-12T22:52:21.466Z,19.30
2018-07-12T22:54:50.518Z,19.30
2018-07-12T22:57:18.949Z,19.30
2018-07-12T22:59:47.623Z,19.40
2018-07-12T23:02:16.165Z,19.40
2018-07-12T23:04:44.504Z,19.40
2018-07-12T23:07:12.843Z,19.40
2018-07-12T23:09:41.220Z,19.30
2018-07-12T23:12:09.609Z,19.40
2018-07-12T23:14:38.021Z,19.40
2018-07-12T23:17:06.369Z,19.40
2018-07-12T23:19:35.088Z,19.40
2018-07-12T23:22:03.423Z,19.30
2018-07-12T23:24:31.802Z,19.30
2018-07-12T23:27:00.227Z,19.30
2018-07-12T23:29:28.585Z,19.20
2018-07-12T23:31:56.944Z,19.30
2018-07-12T23:34:25.289Z,19.20
2018-07-12T23:36:53.651Z,19.20
2018-07-12T23:39:22.099Z,19.20
2018-07-12T23:41:50.474Z,19.20
2018-07-12T23:44:18.831Z,19.20
2018-07-12T23:46:47.190Z,19.20
2018-07-12T23:49:15.830Z,19.20
2018-07-12T23:51:44.187Z,19.10
2018-07-12T23:54:12.565Z,19.10
2018-07-12T23:56:40.897Z,19.10
2018-07-12T23:59:09.318Z,19.00
